createdAt,value
2019-06-08T00:00:07.571Z,100743.12
2019-06-08T00:02:38.527Z,100742.67
2019-06-08T00:05:10.486Z,100743.90
2019-06-08T00:07:44.735Z,100737.00
2019-06-08T00:10:15.248Z,100739.07
2019-06-08T00:12:46.759Z,100736.42
2019-06-08T00:15:18.617Z,100731.30
2019-06-08T00:17:49.885Z,100741.66
2019-06-08T00:20:21.857Z,100739.56
2019-06-08T00:22:54.863Z,100745.20
2019-06-08T00:25:25.233Z,100748.23
2019-06-08T00:27:56.929Z,100755.98
2019-06-08T00:30:28.807Z,100747.38
2019-06-08T00:32:59.658Z,100754.72
2019-06-08T00:35:30.248Z,100756.45
2019-06-08T00:38:00.534Z,100752.15
2019-06-08T00:40:30.889Z,100745.27
2019-06-08T00:43:12.737Z,100753.87
2019-06-08T00:45:43.207Z,100762.07
2019-06-08T00:48:13.498Z,100746.55
2019-06-08T00:50:44.165Z,100762.55
2019-06-08T00:53:14.741Z,100778.06
2019-06-08T00:55:45.191Z,100775.06
2019-06-08T00:58:15.467Z,100773.31
2019-06-08T01:00:48.935Z,100788.84
2019-06-08T01:03:19.583Z,100782.84
2019-06-08T01:05:52.326Z,100777.67
2019-06-08T01:08:25.782Z,100783.69
2019-06-08T01:10:56.022Z,100788.42
2019-06-08T01:13:26.958Z,100789.73
2019-06-08T01:15:58.788Z,100780.66
2019-06-08T01:18:29.362Z,100792.28
2019-06-08T01:21:00.192Z,100802.17
2019-06-08T01:23:30.722Z,100805.63
2019-06-08T01:26:01.284Z,100788.84
2019-06-08T01:28:32.745Z,100800.93
2019-06-08T01:31:03.637Z,100805.63
2019-06-08T01:33:36.025Z,100802.58
2019-06-08T01:36:07.382Z,100802.58
2019-06-08T01:38:38.105Z,100809.89
2019-06-08T01:41:08.581Z,100809.47
2019-06-08T01:43:38.909Z,100812.06
2019-06-08T01:46:09.599Z,100806.45
2019-06-08T01:48:41.187Z,100828.38
2019-06-08T01:51:11.792Z,100830.09
2019-06-08T01:53:43.729Z,100818.45
2019-06-08T01:56:14.167Z,100812.39
2019-06-08T01:58:44.842Z,100805.45
2019-06-08T02:01:15.426Z,100826.56
2019-06-08T02:03:46.129Z,100829.11
2019-06-08T02:06:18.023Z,100818.75
2019-06-08T02:08:48.684Z,100833.80
2019-06-08T02:11:19.271Z,100827.34
2019-06-08T02:13:49.838Z,100824.31
2019-06-08T02:16:20.428Z,100838.92
2019-06-08T02:18:51.428Z,100835.91
2019-06-08T02:21:21.655Z,100829.00
2019-06-08T02:23:52.293Z,100830.72
2019-06-08T02:26:26.986Z,100843.16
2019-06-08T02:28:56.180Z,100843.16
2019-06-08T02:31:27.981Z,100836.70
2019-06-08T02:33:58.979Z,100847.42
2019-06-08T02:36:32.816Z,100840.52
2019-06-08T02:39:02.130Z,100844.36
2019-06-08T02:41:35.308Z,100847.39
2019-06-08T02:44:06.409Z,100846.94
2019-06-08T02:46:38.272Z,100845.66
2019-06-08T02:49:09.581Z,100854.66
2019-06-08T02:51:41.118Z,100857.25
2019-06-08T02:54:13.551Z,100857.67
2019-06-08T02:56:44.959Z,100846.07
2019-06-08T02:59:15.861Z,100859.87
2019-06-08T03:01:48.431Z,100879.59
2019-06-08T03:04:22.833Z,100877.05
2019-06-08T03:06:53.727Z,100880.92
2019-06-08T03:09:27.332Z,100870.94
2019-06-08T03:12:02.890Z,100886.86
2019-06-08T03:14:35.358Z,100884.28
2019-06-08T03:17:06.524Z,100889.83
2019-06-08T03:19:37.531Z,100886.38
2019-06-08T03:22:10.792Z,100888.08
2019-06-08T03:24:41.461Z,100898.00
2019-06-08T03:27:13.605Z,100902.71
2019-06-08T03:29:46.353Z,100898.41
2019-06-08T03:32:16.810Z,100904.87
2019-06-08T03:34:55.677Z,100910.46
2019-06-08T03:37:21.484Z,100913.50
2019-06-08T03:39:52.153Z,100929.42
2019-06-08T03:42:22.730Z,100929.88
2019-06-08T03:44:53.288Z,100931.63
2019-06-08T03:47:23.893Z,100925.16
2019-06-08T03:49:57.517Z,100941.91
2019-06-08T03:52:26.961Z,100939.75
2019-06-08T03:54:57.412Z,100936.67
2019-06-08T03:57:29.061Z,100950.88
2019-06-08T04:00:00.185Z,100937.05
2019-06-08T04:02:31.078Z,100948.63
2019-06-08T04:05:01.937Z,100938.30
2019-06-08T04:07:33.146Z,100952.88
2019-06-08T04:10:03.942Z,100949.42
2019-06-08T04:12:34.715Z,100938.64
2019-06-08T04:15:05.784Z,100945.51
2019-06-08T04:17:37.892Z,100951.51
2019-06-08T04:20:11.481Z,100949.80
2019-06-08T04:22:46.989Z,100961.00
2019-06-08T04:25:17.492Z,100957.97
2019-06-08T04:27:48.199Z,100961.00
2019-06-08T04:30:18.894Z,100967.84
2019-06-08T04:32:49.759Z,100957.09
2019-06-08T04:35:20.397Z,100950.55
2019-06-08T04:37:52.053Z,100967.75
2019-06-08T04:40:22.613Z,100970.33
2019-06-08T04:42:53.126Z,100972.08
2019-06-08T04:45:23.376Z,100975.50
2019-06-08T04:47:54.052Z,100969.45
2019-06-08T04:50:24.472Z,100976.78
2019-06-08T04:52:55.040Z,100975.50
2019-06-08T04:55:25.349Z,100970.33
2019-06-08T04:57:55.972Z,100980.25
2019-06-08T05:00:30.413Z,100985.87
2019-06-08T05:02:58.831Z,100984.12
2019-06-08T05:05:29.139Z,100982.83
2019-06-08T05:08:02.563Z,100991.86
2019-06-08T05:10:34.312Z,101012.06
2019-06-08T05:13:06.019Z,100998.69
2019-06-08T05:15:36.918Z,101000.40
2019-06-08T05:18:08.297Z,101007.78
2019-06-08T05:20:41.422Z,100993.70
2019-06-08T05:23:11.180Z,101003.25
2019-06-08T05:25:43.099Z,100999.00
2019-06-08T05:28:13.815Z,101017.96
2019-06-08T05:30:45.271Z,101022.71
2019-06-08T05:33:17.214Z,101022.71
2019-06-08T05:35:47.769Z,101027.00
2019-06-08T05:38:18.389Z,101027.00
2019-06-08T05:40:49.896Z,101031.66
2019-06-08T05:43:20.277Z,101031.66
2019-06-08T05:45:51.711Z,101042.77
2019-06-08T05:48:22.289Z,101034.93
2019-06-08T05:51:03.358Z,101046.04
2019-06-08T05:53:25.209Z,101037.36
2019-06-08T05:55:55.559Z,101035.16
2019-06-08T05:58:26.136Z,101063.19
2019-06-08T06:00:56.718Z,101061.13
2019-06-08T06:03:27.340Z,101076.56
2019-06-08T06:05:57.619Z,101052.45
2019-06-08T06:08:28.054Z,101072.27
2019-06-08T06:10:58.650Z,101090.50
2019-06-08T06:13:29.234Z,101076.62
2019-06-08T06:15:59.684Z,101072.34
2019-06-08T06:18:30.391Z,101072.32
2019-06-08T06:21:10.841Z,101078.38
2019-06-08T06:23:33.729Z,101088.28
2019-06-08T06:26:06.584Z,101083.84
2019-06-08T06:28:37.093Z,101101.50
2019-06-08T06:31:09.656Z,101096.75
2019-06-08T06:33:39.962Z,101101.45
2019-06-08T06:36:10.580Z,101121.86
2019-06-08T06:38:41.919Z,101112.86
2019-06-08T06:41:12.929Z,101101.77
2019-06-08T06:43:43.942Z,101125.05
2019-06-08T06:46:14.319Z,101110.95
2019-06-08T06:48:44.612Z,101120.55
2019-06-08T06:51:25.669Z,101132.55
2019-06-08T06:53:48.757Z,101115.88
2019-06-08T06:56:19.431Z,101136.94
2019-06-08T06:58:51.588Z,101132.91
2019-06-08T07:01:22.158Z,101158.42
2019-06-08T07:03:55.130Z,101153.88
2019-06-08T07:06:25.516Z,101160.76
2019-06-08T07:08:57.444Z,101170.20
2019-06-08T07:11:28.022Z,101154.25
2019-06-08T07:13:59.338Z,101175.94
2019-06-08T07:16:30.003Z,101177.39
2019-06-08T07:19:00.325Z,101180.18
2019-06-08T07:21:41.196Z,101190.75
2019-06-08T07:24:03.471Z,101191.39
2019-06-08T07:26:34.035Z,101198.06
2019-06-08T07:29:05.124Z,101189.48
2019-06-08T07:31:35.504Z,101209.11
2019-06-08T07:34:06.165Z,101201.67
2019-06-08T07:36:37.088Z,101209.44
2019-06-08T07:39:08.322Z,101208.67
2019-06-08T07:41:39.228Z,101217.36
2019-06-08T07:44:09.823Z,101205.63
2019-06-08T07:46:40.534Z,101214.02
2019-06-08T07:49:12.153Z,101213.05
2019-06-08T07:51:57.631Z,101206.48
2019-06-08T07:54:16.754Z,101217.44
2019-06-08T07:56:48.337Z,101211.98
2019-06-08T08:01:58.386Z,101226.16
2019-06-08T08:04:28.855Z,101219.06
2019-06-08T08:06:59.514Z,101220.64
2019-06-08T08:09:30.258Z,101223.05
2019-06-08T08:12:00.875Z,101228.71
2019-06-08T08:14:31.221Z,101233.28
2019-06-08T08:17:02.049Z,101235.18
2019-06-08T08:19:32.653Z,101242.41
2019-06-08T08:22:21.449Z,101223.50
2019-06-08T08:24:38.665Z,101247.06
2019-06-08T08:27:08.811Z,101251.33
2019-06-08T08:29:39.445Z,101238.87
2019-06-08T08:32:10.266Z,101237.30
2019-06-08T08:34:40.530Z,101243.67
2019-06-08T08:37:11.191Z,101214.95
2019-06-08T08:39:41.926Z,101241.59
2019-06-08T08:42:12.584Z,101241.91
2019-06-08T08:44:43.174Z,101254.41
2019-06-08T08:47:13.981Z,101249.50
2019-06-08T08:49:44.843Z,101259.66
2019-06-08T08:52:17.506Z,101266.09
2019-06-08T08:54:47.855Z,101259.34
2019-06-08T08:57:18.550Z,101260.91
2019-06-08T08:59:51.987Z,101266.66
2019-06-08T09:02:21.543Z,101263.45
2019-06-08T09:04:53.321Z,101253.22
2019-06-08T09:07:24.222Z,101276.23
2019-06-08T09:09:56.142Z,101272.09
2019-06-08T09:12:27.659Z,101287.64
2019-06-08T09:15:01.819Z,101288.88
2019-06-08T09:17:30.639Z,101295.20
2019-06-08T09:20:03.663Z,101306.28
2019-06-08T09:22:47.180Z,101306.28
2019-06-08T09:25:08.741Z,101317.81
2019-06-08T09:27:40.369Z,101322.58
2019-06-08T09:30:11.126Z,101310.88
2019-06-08T09:32:41.831Z,101325.73
2019-06-08T09:35:12.857Z,101342.59
2019-06-08T09:37:43.188Z,101334.81
2019-06-08T09:40:13.659Z,101342.91
2019-06-08T09:42:44.500Z,101346.48
2019-06-08T09:45:18.028Z,101344.66
2019-06-08T09:47:48.034Z,101363.16
2019-06-08T09:50:18.877Z,101363.16
2019-06-08T09:53:04.542Z,101362.08
2019-06-08T09:55:21.795Z,101347.39
2019-06-08T09:57:54.542Z,101361.80
2019-06-08T10:00:28.369Z,101368.17
2019-06-08T10:03:02.201Z,101374.50
2019-06-08T10:05:31.409Z,101381.30
2019-06-08T10:08:03.839Z,101389.25
2019-06-08T10:10:34.333Z,101388.44
2019-06-08T10:13:07.160Z,101391.91
2019-06-08T10:15:38.748Z,101401.40
2019-06-08T10:18:10.956Z,101402.85
2019-06-08T10:20:41.409Z,101395.66
2019-06-08T10:23:29.832Z,101396.56
2019-06-08T10:25:44.098Z,101397.06
2019-06-08T10:28:18.449Z,101406.06
2019-06-08T10:30:48.528Z,101399.05
2019-06-08T10:33:19.324Z,101404.05
2019-06-08T10:35:50.223Z,101407.67
2019-06-08T10:38:20.797Z,101411.25
2019-06-08T10:41:10.167Z,101413.42
2019-06-08T10:43:38.620Z,101406.97
2019-06-08T10:46:16.390Z,101406.97
2019-06-08T10:48:41.153Z,101407.39
2019-06-08T10:51:13.441Z,101406.98
2019-06-08T10:53:52.592Z,101418.69
2019-06-08T10:56:18.892Z,101417.80
2019-06-08T10:58:49.973Z,101419.11
2019-06-08T11:01:20.887Z,101406.05
2019-06-08T11:03:51.537Z,101419.39
2019-06-08T11:06:22.147Z,101427.48
2019-06-08T11:08:52.828Z,101439.03
2019-06-08T11:11:23.506Z,101436.75
2019-06-08T11:13:54.192Z,101431.38
2019-06-08T11:16:28.569Z,101430.44
2019-06-08T11:18:59.086Z,101411.62
2019-06-08T11:21:29.174Z,101414.32
2019-06-08T11:24:07.575Z,101432.31
2019-06-08T11:26:34.015Z,101455.14
2019-06-08T11:29:05.503Z,101455.14
2019-06-08T11:31:39.023Z,101439.80
2019-06-08T11:34:10.509Z,101454.88
2019-06-08T11:36:41.225Z,101462.30
2019-06-08T11:39:12.841Z,101456.36
2019-06-08T11:41:44.670Z,101462.84
2019-06-08T11:44:17.738Z,101462.84
2019-06-08T11:46:47.903Z,101483.86
2019-06-08T11:49:18.879Z,101471.77
2019-06-08T11:51:49.929Z,101473.22
2019-06-08T11:54:33.174Z,101473.22
2019-06-08T11:56:53.643Z,101479.02
2019-06-08T11:59:25.363Z,101490.77
2019-06-08T12:01:58.448Z,101474.70
2019-06-08T12:04:28.410Z,101492.09
2019-06-08T12:06:59.113Z,101478.58
2019-06-08T12:09:30.353Z,101494.59
2019-06-08T12:12:01.025Z,101494.59
2019-06-08T12:14:33.587Z,101494.67
2019-06-08T12:17:03.515Z,101502.94
2019-06-08T12:19:34.425Z,101500.72
2019-06-08T12:22:08.789Z,101500.30
2019-06-08T12:24:42.298Z,101499.89
2019-06-08T12:27:23.747Z,101508.55
2019-06-08T12:29:43.820Z,101499.84
2019-06-08T12:32:16.267Z,101502.50
2019-06-08T12:34:46.794Z,101487.52
2019-06-08T12:37:21.936Z,101496.16
2019-06-08T12:39:49.731Z,101503.48
2019-06-08T12:42:24.899Z,101501.97
2019-06-08T12:44:52.739Z,101504.84
2019-06-08T12:47:29.860Z,101496.81
2019-06-08T12:49:59.323Z,101504.27
2019-06-08T12:52:29.912Z,101495.73
2019-06-08T12:55:06.659Z,101496.61
2019-06-08T12:57:32.831Z,101488.58
2019-06-08T13:00:03.465Z,101497.77
2019-06-08T13:02:34.234Z,101501.30
2019-06-08T13:05:05.189Z,101502.48
2019-06-08T13:07:35.467Z,101511.45
2019-06-08T13:10:06.469Z,101501.87
2019-06-08T13:12:40.485Z,101497.55
2019-06-08T13:15:11.640Z,101517.23
2019-06-08T13:17:43.527Z,101522.30
2019-06-08T13:20:22.108Z,101508.61
2019-06-08T13:22:52.810Z,101515.70
2019-06-08T13:25:36.438Z,101511.48
2019-06-08T13:27:55.575Z,101519.50
2019-06-08T13:30:28.987Z,101513.88
2019-06-08T13:32:58.363Z,101510.88
2019-06-08T13:35:30.620Z,101520.86
2019-06-08T13:38:01.816Z,101520.86
2019-06-08T13:40:32.635Z,101522.07
2019-06-08T13:43:03.196Z,101521.20
2019-06-08T13:45:33.505Z,101509.27
2019-06-08T13:48:04.119Z,101498.80
2019-06-08T13:50:34.949Z,101510.38
2019-06-08T13:53:05.323Z,101512.71
2019-06-08T13:55:49.724Z,101509.58
2019-06-08T13:58:08.107Z,101520.63
2019-06-08T14:00:38.822Z,101534.59
2019-06-08T14:03:09.361Z,101529.83
2019-06-08T14:05:39.970Z,101530.16
2019-06-08T14:08:10.986Z,101530.47
2019-06-08T14:10:42.072Z,101533.53
2019-06-08T14:13:13.067Z,101541.75
2019-06-08T14:15:44.157Z,101525.66
2019-06-08T14:18:17.928Z,101536.21
2019-06-08T14:20:48.396Z,101548.38
2019-06-08T14:23:21.063Z,101534.02
2019-06-08T14:25:56.619Z,101539.34
2019-06-08T14:28:25.710Z,101557.03
2019-06-08T14:30:59.199Z,101557.73
2019-06-08T14:33:33.146Z,101540.25
2019-06-08T14:36:01.544Z,101541.45
2019-06-08T14:38:38.556Z,101545.03
2019-06-08T14:41:04.621Z,101553.75
2019-06-08T14:43:35.235Z,101539.84
2019-06-08T14:46:07.903Z,101530.25
2019-06-08T14:48:38.342Z,101552.88
2019-06-08T14:51:08.981Z,101557.09
2019-06-08T14:53:39.585Z,101535.28
2019-06-08T14:56:09.893Z,101547.59
2019-06-08T14:58:40.451Z,101542.00
2019-06-08T15:01:11.100Z,101560.26
2019-06-08T15:03:42.017Z,101561.97
2019-06-08T15:06:13.346Z,101582.25
2019-06-08T15:08:43.998Z,101605.53
2019-06-08T15:11:17.898Z,101635.09
2019-06-08T15:13:48.892Z,101663.80
2019-06-08T15:16:21.587Z,101652.96
2019-06-08T15:18:52.252Z,101629.91
2019-06-08T15:21:23.879Z,101636.23
2019-06-08T15:23:57.879Z,101651.48
2019-06-08T15:26:36.704Z,101647.61
2019-06-08T15:29:00.734Z,101658.51
2019-06-08T15:31:32.626Z,101674.51
2019-06-08T15:34:04.751Z,101686.97
2019-06-08T15:36:38.024Z,101718.94
2019-06-08T15:39:08.724Z,101711.75
2019-06-08T15:41:39.056Z,101730.48
2019-06-08T15:44:09.658Z,101743.13
2019-06-08T15:46:41.834Z,101729.86
2019-06-08T15:49:12.149Z,101739.01
2019-06-08T15:51:42.575Z,101713.35
2019-06-08T15:54:13.178Z,101690.34
2019-06-08T15:56:49.521Z,101689.50
2019-06-08T15:59:16.130Z,101699.59
2019-06-08T16:01:46.757Z,101693.16
2019-06-08T16:04:17.099Z,101704.27
2019-06-08T16:06:47.575Z,101707.59
2019-06-08T16:09:17.983Z,101709.74
2019-06-08T16:11:48.662Z,101749.61
2019-06-08T16:14:19.585Z,101751.69
2019-06-08T16:16:50.082Z,101755.95
2019-06-08T16:19:20.474Z,101756.34
2019-06-08T16:21:51.088Z,101755.14
2019-06-08T16:24:21.505Z,101762.28
2019-06-08T16:26:53.588Z,101760.14
2019-06-08T16:29:24.509Z,101746.52
2019-06-08T16:31:55.096Z,101750.69
2019-06-08T16:34:25.435Z,101746.57
2019-06-08T16:36:55.803Z,101745.35
2019-06-08T16:39:26.924Z,101741.59
2019-06-08T16:41:57.575Z,101736.67
2019-06-08T16:44:28.222Z,101734.97
2019-06-08T16:46:58.581Z,101727.94
2019-06-08T16:49:36.673Z,101720.65
2019-06-08T16:52:09.030Z,101715.00
2019-06-08T16:54:40.967Z,101702.70
2019-06-08T16:57:12.360Z,101716.70
2019-06-08T16:59:44.339Z,101722.41
2019-06-08T17:02:16.897Z,101723.02
2019-06-08T17:04:46.650Z,101725.92
2019-06-08T17:07:17.719Z,101724.59
2019-06-08T17:09:48.611Z,101743.77
2019-06-08T17:12:19.378Z,101739.13
2019-06-08T17:14:50.277Z,101756.09
2019-06-08T17:17:22.550Z,101757.22
2019-06-08T17:19:53.512Z,101773.80
2019-06-08T17:25:00.398Z,101782.83
2019-06-08T17:27:31.043Z,101770.96
2019-06-08T17:30:08.008Z,101770.96
2019-06-08T17:32:34.774Z,101775.95
2019-06-08T17:35:06.756Z,101777.67
2019-06-08T17:37:38.208Z,101770.25
2019-06-08T17:40:08.887Z,101779.84
2019-06-08T17:42:39.667Z,101774.73
2019-06-08T17:45:10.332Z,101769.55
2019-06-08T17:47:45.678Z,101770.45
2019-06-08T17:50:18.703Z,101774.58
2019-06-08T17:52:51.349Z,101769.58
2019-06-08T17:55:21.682Z,101772.94
2019-06-08T17:57:54.059Z,101782.53
2019-06-08T18:00:25.266Z,101782.48
2019-06-08T18:02:57.766Z,101771.95
2019-06-08T18:05:29.100Z,101774.27
2019-06-08T18:07:59.740Z,101766.89
2019-06-08T18:10:30.708Z,101775.50
2019-06-08T18:13:01.395Z,101775.19
2019-06-08T18:15:34.071Z,101782.70
2019-06-08T18:18:04.913Z,101785.22
2019-06-08T18:20:39.004Z,101780.77
2019-06-08T18:23:08.279Z,101787.72
2019-06-08T18:25:40.611Z,101788.69
2019-06-08T18:28:13.641Z,101788.66
2019-06-08T18:30:45.084Z,101783.33
2019-06-08T18:33:18.070Z,101783.33
2019-06-08T18:35:49.456Z,101783.33
2019-06-08T18:38:24.621Z,101786.30
2019-06-08T18:40:57.446Z,101790.30
2019-06-08T18:43:28.020Z,101796.77
2019-06-08T18:45:59.498Z,101791.44
2019-06-08T18:48:29.830Z,101791.44
2019-06-08T18:51:04.747Z,101802.17
2019-06-08T18:53:49.094Z,101799.19
2019-06-08T18:56:09.638Z,101802.84
2019-06-08T18:58:40.351Z,101789.92
2019-06-08T19:01:10.785Z,101800.67
2019-06-08T19:03:46.302Z,101800.36
2019-06-08T19:06:18.707Z,101793.60
2019-06-08T19:08:49.781Z,101800.58
2019-06-08T19:11:21.033Z,101795.25
2019-06-08T19:13:52.619Z,101805.69
2019-06-08T19:16:23.436Z,101808.25
2019-06-08T19:18:57.953Z,101813.86
2019-06-08T19:21:28.352Z,101819.73
2019-06-08T19:23:59.166Z,101819.73
2019-06-08T19:26:29.764Z,101819.49
2019-06-08T19:29:00.332Z,101814.77
2019-06-08T19:31:31.628Z,101822.66
2019-06-08T19:34:03.343Z,101830.78
2019-06-08T19:36:33.711Z,101836.07
2019-06-08T19:39:07.158Z,101832.88
2019-06-08T19:41:39.438Z,101836.78
2019-06-08T19:44:10.063Z,101839.95
2019-06-08T19:46:40.874Z,101844.50
2019-06-08T19:49:11.417Z,101849.48
2019-06-08T19:51:42.934Z,101836.39
2019-06-08T19:54:13.756Z,101852.53
2019-06-08T19:56:47.730Z,101858.70
2019-06-08T19:59:18.253Z,101865.77
2019-06-08T20:01:56.039Z,101866.19
2019-06-08T20:04:21.256Z,101873.43
2019-06-08T20:06:51.793Z,101877.89
2019-06-08T20:09:22.668Z,101880.42
2019-06-08T20:11:57.758Z,101886.00
2019-06-08T20:14:27.063Z,101886.45
2019-06-08T20:16:57.923Z,101893.64
2019-06-08T20:19:28.608Z,101901.37
2019-06-08T20:21:59.356Z,101901.24
2019-06-08T20:24:29.717Z,101904.39
2019-06-08T20:27:01.700Z,101912.80
2019-06-08T20:29:32.191Z,101910.80
2019-06-08T20:32:02.862Z,101917.03
2019-06-08T20:34:33.206Z,101918.98
2019-06-08T20:37:07.949Z,101912.47
2019-06-08T20:39:38.002Z,101917.56
2019-06-08T20:42:11.687Z,101917.56
2019-06-08T20:44:39.977Z,101920.91
2019-06-08T20:47:10.349Z,101916.02
2019-06-08T20:49:42.211Z,101916.02
2019-06-08T20:52:12.583Z,101928.13
2019-06-08T20:54:44.581Z,101932.53
2019-06-08T20:57:17.059Z,101937.34
2019-06-08T20:59:50.186Z,101939.33
2019-06-08T21:02:20.210Z,101938.50
2019-06-08T21:04:54.481Z,101938.50
2019-06-08T21:07:27.992Z,101937.48
2019-06-08T21:09:58.234Z,101944.70
2019-06-08T21:12:28.761Z,101943.42
2019-06-08T21:15:01.240Z,101951.10
2019-06-08T21:17:31.667Z,101953.05
2019-06-08T21:20:03.224Z,101946.22
2019-06-08T21:22:33.603Z,101950.09
2019-06-08T21:25:08.646Z,101963.32
2019-06-08T21:27:38.823Z,101955.69
2019-06-08T21:30:20.351Z,101959.27
2019-06-08T21:32:41.755Z,101956.69
2019-06-08T21:35:12.683Z,101959.67
2019-06-08T21:37:43.034Z,101964.94
2019-06-08T21:40:13.405Z,101966.34
2019-06-08T21:42:45.054Z,101971.61
2019-06-08T21:45:15.719Z,101970.09
2019-06-08T21:47:48.465Z,101963.90
2019-06-08T21:50:18.785Z,101964.14
2019-06-08T21:52:51.907Z,101967.64
2019-06-08T21:55:22.454Z,101970.13
2019-06-08T21:57:55.684Z,101963.41
2019-06-08T22:00:39.254Z,101963.36
2019-06-08T22:03:00.540Z,101966.82
2019-06-08T22:05:30.905Z,101966.82
2019-06-08T22:08:03.916Z,101960.14
2019-06-08T22:10:34.214Z,101966.82
2019-06-08T22:13:05.029Z,101967.50
2019-06-08T22:15:37.749Z,101977.27
2019-06-08T22:18:08.805Z,101970.63
2019-06-08T22:20:39.102Z,101976.13
2019-06-08T22:23:09.396Z,101976.61
2019-06-08T22:25:40.281Z,101976.94
2019-06-08T22:28:10.681Z,101981.91
2019-06-08T22:30:43.165Z,101979.29
2019-06-08T22:33:13.241Z,101985.11
2019-06-08T22:35:43.520Z,101987.43
2019-06-08T22:38:14.182Z,101983.63
2019-06-08T22:40:44.742Z,101981.10
2019-06-08T22:43:16.139Z,101984.03
2019-06-08T22:45:49.483Z,101980.84
2019-06-08T22:48:20.018Z,101988.78
2019-06-08T22:50:50.641Z,101984.75
2019-06-08T22:53:21.201Z,101983.38
2019-06-08T22:55:53.825Z,101985.55
2019-06-08T22:58:24.124Z,101985.55
2019-06-08T23:00:56.067Z,101986.83
2019-06-08T23:03:26.572Z,101978.11
2019-06-08T23:05:59.732Z,101981.61
2019-06-08T23:08:29.549Z,101993.04
2019-06-08T23:11:01.813Z,101991.83
2019-06-08T23:13:32.119Z,101993.04
2019-06-08T23:16:04.000Z,101994.27
2019-06-08T23:18:37.162Z,101995.08
2019-06-08T23:21:08.925Z,101998.71
2019-06-08T23:23:39.338Z,101997.11
2019-06-08T23:26:10.711Z,101998.22
2019-06-08T23:28:42.533Z,101997.28
2019-06-08T23:31:21.538Z,101990.20
2019-06-08T23:33:48.287Z,101994.98
2019-06-08T23:36:39.455Z,101995.11
2019-06-08T23:38:51.604Z,101997.20
2019-06-08T23:41:22.692Z,102000.22
2019-06-08T23:43:54.371Z,101995.38
2019-06-08T23:46:27.385Z,101995.38
2019-06-08T23:49:01.560Z,102001.62
2019-06-08T23:51:31.255Z,101998.04
2019-06-08T23:54:03.892Z,101996.53
2019-06-08T23:56:36.933Z,102003.23
2019-06-08T23:59:07.300Z,102006.55
